Time;durP1;ratioP1;P1;durP2;ratioP2;P2;SDS_P1;SDS_P2;PMS_P1;PMS_P2;Temp;Humidity;BMP_temperature;BMP_pressure;BME280_temperature;BME280_humidity;BME280_pressure;Samples;Min_cycle;Max_cycle;Signal;HPM_P1;HPM_P2
2022/12/14 00:02:00;;;;;;;24.07;10.50;;;;;-4.50;95094.00;;;;8235002;28;20616;-75
2022/12/14 00:06:10;;;;;;;30.43;13.60;;;;;-4.50;95077.00;;;;8234403;28;20199;-79
2022/12/14 00:10:13;;;;;;;36.33;14.77;;;;;-4.50;95067.00;;;;8235062;28;20207;-79
2022/12/14 00:14:18;;;;;;;25.40;11.83;;;;;-4.40;95061.00;;;;8234544;28;20191;-79
2022/12/14 00:18:21;;;;;;;34.73;13.77;;;;;-4.40;95066.00;;;;8235325;28;20230;-78
2022/12/14 00:22:24;;;;;;;35.17;14.00;;;;;-4.40;95067.00;;;;8233401;28;20223;-79
2022/12/14 00:26:29;;;;;;;40.60;15.27;;;;;-4.40;95054.00;;;;8234019;28;20206;-79
2022/12/14 00:30:34;;;;;;;33.17;14.03;;;;;-4.40;95045.00;;;;8233653;28;20200;-79
2022/12/14 00:34:37;;;;;;;35.40;14.23;;;;;-4.40;95059.00;;;;8234842;28;20656;-79
2022/12/14 00:38:41;;;;;;;38.20;11.97;;;;;-4.40;95063.00;;;;8233994;28;20195;-79
2022/12/14 00:42:44;;;;;;;22.10;10.07;;;;;-4.40;95068.00;;;;8233385;28;20219;-79
2022/12/14 00:46:48;;;;;;;33.83;12.03;;;;;-4.40;95071.00;;;;8233322;28;20199;-80
2022/12/14 00:50:53;;;;;;;40.43;12.00;;;;;-4.40;95077.00;;;;8233390;28;20199;-80
2022/12/14 00:54:56;;;;;;;39.80;14.37;;;;;-4.30;95081.00;;;;8237922;28;20510;-79
2022/12/14 00:58:59;;;;;;;40.57;14.57;;;;;-4.30;95072.00;;;;8240236;28;20202;-80
2022/12/14 01:03:05;;;;;;;37.97;15.20;;;;;-4.20;95066.00;;;;8239275;28;20569;-79
2022/12/14 01:07:08;;;;;;;26.20;10.93;;;;;-4.30;95066.00;;;;8239655;28;20242;-79
2022/12/14 01:11:11;;;;;;;40.53;14.53;;;;;-4.30;95083.00;;;;8239221;28;20207;-79
2022/12/14 01:15:14;;;;;;;33.57;13.33;;;;;-4.30;95074.00;;;;8239332;28;20203;-79
2022/12/14 01:19:19;;;;;;;33.03;13.07;;;;;-4.20;95087.00;;;;8239063;28;20253;-79
2022/12/14 01:23:22;;;;;;;31.90;13.00;;;;;-4.20;95081.00;;;;8238755;28;20230;-79
2022/12/14 01:27:25;;;;;;;35.70;13.33;;;;;-4.20;95075.00;;;;8238403;28;20195;-80
2022/12/14 01:31:30;;;;;;;32.00;13.30;;;;;-4.10;95071.00;;;;8240370;28;20245;-80
2022/12/14 01:35:35;;;;;;;33.57;13.50;;;;;-4.10;95060.00;;;;8238042;28;20210;-80
2022/12/14 01:39:38;;;;;;;32.67;11.73;;;;;-4.00;95055.00;;;;8238688;28;20199;-80
2022/12/14 01:43:48;;;;;;;35.23;13.30;;;;;-4.10;95053.00;;;;8238795;28;20293;-80
2022/12/14 01:47:56;;;;;;;24.57;11.13;;;;;-4.10;95040.00;;;;8238320;28;20199;-80
2022/12/14 01:52:08;;;;;;;31.00;12.70;;;;;-4.20;95037.00;;;;8238466;28;20214;-79
2022/12/14 01:56:11;;;;;;;27.03;12.10;;;;;-4.20;95040.00;;;;8238813;28;20277;-79
2022/12/14 02:00:16;;;;;;;33.43;13.80;;;;;-4.20;95025.00;;;;8237935;28;20204;-80
2022/12/14 02:04:20;;;;;;;26.97;11.27;;;;;-4.20;95037.00;;;;8236997;28;20231;-80
2022/12/14 02:08:58;;;;;;;35.83;12.97;;;;;-4.20;95032.00;;;;8237723;28;20650;-79
2022/12/14 02:13:05;;;;;;;34.87;13.77;;;;;-4.10;95028.00;;;;8238533;28;20390;-79
2022/12/14 02:17:10;;;;;;;36.00;14.27;;;;;-4.10;95028.00;;;;8237822;28;20199;-79
2022/12/14 02:21:24;;;;;;;33.40;12.77;;;;;-4.10;95006.00;;;;8237983;28;20191;-79
2022/12/14 02:25:50;;;;;;;28.00;12.30;;;;;-4.20;95002.00;;;;8238100;28;20223;-79
2022/12/14 02:30:05;;;;;;;31.97;12.37;;;;;-4.20;95012.00;;;;8237921;28;20191;-79
2022/12/14 02:34:14;;;;;;;35.50;13.90;;;;;-4.10;94999.00;;;;8237321;28;20210;-79
2022/12/14 02:38:30;;;;;;;32.27;14.17;;;;;-4.10;95011.00;;;;8236833;28;20195;-79
2022/12/14 02:43:02;;;;;;;36.40;14.10;;;;;-4.10;95032.00;;;;8237852;28;20226;-79
2022/12/14 02:47:11;;;;;;;31.17;12.47;;;;;-4.10;95033.00;;;;8235035;28;20202;-79
2022/12/14 02:51:24;;;;;;;23.83;10.27;;;;;-4.10;95031.00;;;;8236350;28;20200;-79
2022/12/14 02:55:31;;;;;;;16.63;9.67;;;;;-4.10;95002.00;;;;8236553;28;20202;-79
2022/12/14 02:59:35;;;;;;;26.53;10.77;;;;;-4.10;95005.00;;;;8236155;28;20773;-79
2022/12/14 03:03:41;;;;;;;29.07;13.43;;;;;-4.10;94998.00;;;;8247854;23;20288;-76
2022/12/14 03:07:47;;;;;;;29.83;13.13;;;;;-4.00;94990.00;;;;8253583;28;20831;-76
2022/12/14 03:11:55;;;;;;;32.77;12.47;;;;;-4.00;94990.00;;;;8251718;28;20252;-76
2022/12/14 03:16:01;;;;;;;32.40;12.63;;;;;-4.00;94990.00;;;;8243930;28;20226;-74
2022/12/14 03:20:10;;;;;;;30.80;12.83;;;;;-4.10;94981.00;;;;8252084;28;20199;-77
2022/12/14 03:24:19;;;;;;;28.50;10.37;;;;;-4.10;94978.00;;;;8252786;28;20230;-76
2022/12/14 03:28:28;;;;;;;25.33;11.57;;;;;-4.10;94978.00;;;;8245809;28;20617;-75
2022/12/14 03:32:34;;;;;;;24.80;10.33;;;;;-4.10;94956.00;;;;8251695;28;20221;-76
2022/12/14 03:36:44;;;;;;;22.10;10.63;;;;;-4.10;94951.00;;;;8249249;28;20209;-76
2022/12/14 03:40:54;;;;;;;26.80;11.17;;;;;-4.10;94945.00;;;;8246602;28;20211;-76
2022/12/14 03:45:04;;;;;;;28.93;12.33;;;;;-4.00;94925.00;;;;8244614;28;20234;-78
2022/12/14 03:49:16;;;;;;;22.30;9.63;;;;;-4.10;94915.00;;;;8249509;28;20219;-75
2022/12/14 03:53:26;;;;;;;32.47;12.67;;;;;-4.10;94924.00;;;;8240915;28;20663;-77
2022/12/14 03:57:47;;;;;;;30.67;11.83;;;;;-4.00;94924.00;;;;8241178;28;20700;-78
2022/12/14 04:01:56;;;;;;;31.53;12.40;;;;;-4.00;94932.00;;;;8244325;28;20227;-76
2022/12/14 04:06:03;;;;;;;31.50;11.33;;;;;-4.00;94924.00;;;;8219014;28;20235;-77
2022/12/14 04:18:58;;;;;;;30.87;11.10;;;;;-3.90;94921.00;;;;8213289;28;20200;-77
2022/12/14 04:23:08;;;;;;;27.60;11.83;;;;;-3.80;94917.00;;;;8218829;28;20204;-78
2022/12/14 04:27:17;;;;;;;28.47;12.00;;;;;-3.80;94941.00;;;;8212560;28;20223;-78
2022/12/14 04:31:23;;;;;;;24.53;10.77;;;;;-3.70;94930.00;;;;8216274;28;20362;-76
2022/12/14 04:35:33;;;;;;;25.10;10.80;;;;;-3.70;94918.00;;;;8221119;28;20224;-76
2022/12/14 04:39:42;;;;;;;25.00;11.07;;;;;-3.60;94905.00;;;;8218379;28;20200;-77
2022/12/14 04:43:50;;;;;;;21.87;10.87;;;;;-3.60;94907.00;;;;8214930;28;20239;-74
2022/12/14 04:48:00;;;;;;;32.60;14.07;;;;;-3.50;94893.00;;;;8200159;28;20195;-78
2022/12/14 04:52:08;;;;;;;32.73;12.63;;;;;-3.50;94887.00;;;;8210804;28;20876;-77
2022/12/14 04:56:16;;;;;;;28.53;12.27;;;;;-3.30;94889.00;;;;8214048;28;20709;-75
2022/12/14 05:00:21;;;;;;;30.87;12.40;;;;;-3.30;94891.00;;;;8213115;28;20203;-78
2022/12/14 05:04:36;;;;;;;29.27;13.17;;;;;-3.20;94892.00;;;;8209646;28;20238;-77
2022/12/14 05:08:57;;;;;;;34.67;12.17;;;;;-3.20;94883.00;;;;8215736;28;20210;-73
2022/12/14 05:13:05;;;;;;;24.93;12.13;;;;;-3.20;94881.00;;;;8213603;28;20266;-76
2022/12/14 05:17:10;;;;;;;30.70;13.00;;;;;-3.10;94877.00;;;;8208270;28;20657;-73
2022/12/14 05:21:45;;;;;;;29.53;11.53;;;;;-3.10;94867.00;;;;8216580;28;20294;-73
2022/12/14 05:25:37;;;;;;;28.23;12.93;;;;;-3.10;94860.00;;;;8215647;28;20231;-70
2022/12/14 05:29:40;;;;;;;34.23;13.33;;;;;-3.20;94844.00;;;;8214022;28;20295;-72
2022/12/14 05:33:45;;;;;;;25.33;11.43;;;;;-3.20;94838.00;;;;8213699;28;20207;-71
2022/12/14 05:37:48;;;;;;;38.00;13.20;;;;;-3.20;94847.00;;;;8213030;28;20822;-72
2022/12/14 05:41:52;;;;;;;32.23;13.20;;;;;-3.20;94846.00;;;;8217022;28;20227;-73
2022/12/14 05:45:58;;;;;;;28.27;11.73;;;;;-3.20;94840.00;;;;8216063;28;20911;-73
2022/12/14 05:50:03;;;;;;;29.97;13.73;;;;;-3.20;94837.00;;;;8209641;28;20234;-73
2022/12/14 05:54:07;;;;;;;24.57;11.23;;;;;-3.20;94831.00;;;;8212172;28;20213;-73
2022/12/14 05:58:10;;;;;;;28.80;12.63;;;;;-3.10;94812.00;;;;8217361;28;20223;-71
2022/12/14 06:02:14;;;;;;;25.80;12.57;;;;;-3.10;94807.00;;;;8206858;28;20235;-72
2022/12/14 06:06:19;;;;;;;34.07;12.63;;;;;-3.00;94812.00;;;;8208787;28;20274;-72
2022/12/14 06:10:22;;;;;;;28.80;9.87;;;;;-2.90;94810.00;;;;8213175;28;20200;-72
2022/12/14 06:14:25;;;;;;;27.40;12.23;;;;;-3.00;94822.00;;;;8217518;28;20290;-73
2022/12/14 06:18:28;;;;;;;33.53;12.20;;;;;-2.90;94807.00;;;;8210612;28;20196;-72
2022/12/14 06:22:32;;;;;;;29.93;12.27;;;;;-2.90;94809.00;;;;8209106;28;20203;-71
2022/12/14 06:26:39;;;;;;;28.10;12.93;;;;;-2.90;94805.00;;;;8209988;28;20231;-73
2022/12/14 06:30:42;;;;;;;28.63;11.93;;;;;-2.90;94795.00;;;;8212923;28;20549;-71
2022/12/14 06:34:45;;;;;;;25.93;10.50;;;;;-2.90;94776.00;;;;8214649;28;20255;-73
2022/12/14 06:38:50;;;;;;;26.30;11.50;;;;;-2.90;94778.00;;;;8217142;28;20200;-73
2022/12/14 06:42:54;;;;;;;28.00;12.50;;;;;-2.80;94794.00;;;;8217320;28;20208;-73
2022/12/14 06:46:57;;;;;;;23.67;10.20;;;;;-2.80;94779.00;;;;8214430;28;20231;-73
2022/12/14 06:51:00;;;;;;;28.10;12.07;;;;;-2.80;94786.00;;;;8217841;28;20231;-73
2022/12/14 06:55:07;;;;;;;32.90;12.83;;;;;-2.80;94788.00;;;;8217808;28;20231;-72
2022/12/14 06:59:10;;;;;;;30.73;11.77;;;;;-2.80;94789.00;;;;8212156;28;20196;-72
2022/12/14 07:03:13;;;;;;;26.73;11.80;;;;;-2.70;94793.00;;;;8211756;28;20231;-72
2022/12/14 07:07:17;;;;;;;24.67;11.07;;;;;-2.70;94778.00;;;;8211992;28;20231;-70
2022/12/14 07:11:21;;;;;;;33.47;12.13;;;;;-2.60;94763.00;;;;8209518;28;20207;-72
2022/12/14 07:15:25;;;;;;;27.67;11.30;;;;;-2.60;94766.00;;;;8214409;28;20212;-70
2022/12/14 07:19:28;;;;;;;23.07;11.03;;;;;-2.60;94764.00;;;;8213667;28;20258;-72
2022/12/14 07:23:32;;;;;;;24.87;10.70;;;;;-2.60;94751.00;;;;8221600;28;20286;-69
2022/12/14 07:27:37;;;;;;;26.90;11.73;;;;;-2.50;94747.00;;;;8210450;28;20263;-72
2022/12/14 07:31:40;;;;;;;26.57;10.30;;;;;-2.40;94752.00;;;;8208095;28;20204;-72
2022/12/14 07:35:43;;;;;;;28.10;11.33;;;;;-2.30;94750.00;;;;8215244;28;20206;-72
2022/12/14 07:39:46;;;;;;;24.33;10.17;;;;;-2.30;94761.00;;;;8213164;28;20676;-72
2022/12/14 07:43:54;;;;;;;27.30;11.47;;;;;-2.20;94758.00;;;;8219099;28;20203;-72
2022/12/14 07:47:57;;;;;;;26.67;10.43;;;;;-2.10;94761.00;;;;8214693;28;20657;-73
2022/12/14 07:52:00;;;;;;;28.33;12.20;;;;;-2.10;94766.00;;;;8209308;28;20231;-73
2022/12/14 07:56:04;;;;;;;20.37;10.63;;;;;-2.00;94753.00;;;;8210711;28;20208;-73
2022/12/14 08:00:10;;;;;;;28.00;12.27;;;;;-1.90;94752.00;;;;8210908;28;20204;-72
2022/12/14 08:04:16;;;;;;;22.10;10.73;;;;;-1.80;94745.00;;;;8207609;28;20232;-74
2022/12/14 08:08:19;;;;;;;30.33;12.60;;;;;-1.80;94747.00;;;;8209562;28;20329;-78
2022/12/14 08:12:22;;;;;;;27.30;11.53;;;;;-1.70;94741.00;;;;8207700;28;20258;-78
2022/12/14 08:16:27;;;;;;;28.33;11.83;;;;;-1.50;94737.00;;;;8214899;28;20676;-79
2022/12/14 08:20:31;;;;;;;33.60;13.53;;;;;-1.40;94751.00;;;;8203151;28;20642;-77
2022/12/14 08:24:34;;;;;;;29.77;13.60;;;;;-1.30;94746.00;;;;8202768;28;20204;-78
2022/12/14 08:28:37;;;;;;;26.90;11.67;;;;;-1.20;94764.00;;;;8207233;28;20258;-80
2022/12/14 08:32:43;;;;;;;28.13;11.83;;;;;-1.10;94752.00;;;;8206713;28;20215;-78
2022/12/14 08:36:47;;;;;;;21.30;10.67;;;;;-0.90;94758.00;;;;8200307;28;20215;-73
2022/12/14 08:40:50;;;;;;;28.90;11.27;;;;;-0.80;94753.00;;;;8207660;28;20259;-79
2022/12/14 08:44:53;;;;;;;26.77;9.77;;;;;-0.80;94746.00;;;;8206264;28;20279;-79
2022/12/14 08:48:58;;;;;;;24.80;10.43;;;;;-0.70;94750.00;;;;8205097;28;20219;-80
2022/12/14 08:53:02;;;;;;;22.07;10.23;;;;;-0.60;94755.00;;;;8205307;28;20437;-77
2022/12/14 08:57:05;;;;;;;20.70;10.23;;;;;-0.70;94740.00;;;;8213842;28;20243;-75
2022/12/14 09:01:12;;;;;;;28.77;11.17;;;;;-0.60;94720.00;;;;8207315;28;20207;-79
2022/12/14 09:05:17;;;;;;;20.80;10.37;;;;;-0.40;94719.00;;;;8219159;28;20640;-77
2022/12/14 09:09:20;;;;;;;20.43;9.73;;;;;-0.40;94710.00;;;;8218901;28;20195;-78
2022/12/14 09:13:23;;;;;;;23.63;9.37;;;;;-0.30;94680.00;;;;8215268;28;20192;-80
2022/12/14 09:17:26;;;;;;;25.93;10.17;;;;;-0.10;94709.00;;;;8219750;28;20201;-75
2022/12/14 09:21:31;;;;;;;21.10;9.63;;;;;0.00;94690.00;;;;8220055;28;20206;-75
2022/12/14 09:25:34;;;;;;;20.63;9.27;;;;;0.20;94691.00;;;;8222722;28;20286;-72
2022/12/14 09:29:37;;;;;;;15.23;7.73;;;;;0.30;94671.00;;;;8217952;28;20205;-74
2022/12/14 09:33:40;;;;;;;22.13;8.93;;;;;0.30;94657.00;;;;8224744;28;20207;-72
2022/12/14 09:37:45;;;;;;;19.00;9.13;;;;;0.10;94648.00;;;;8218707;28;20216;-73
2022/12/14 09:41:56;;;;;;;16.17;8.87;;;;;0.00;94641.00;;;;8215447;28;20213;-72
2022/12/14 09:46:17;;;;;;;16.97;8.63;;;;;-0.10;94643.00;;;;8221449;28;20223;-74
2022/12/14 09:50:22;;;;;;;19.37;8.63;;;;;-0.20;94638.00;;;;8238070;28;20222;-75
2022/12/14 09:54:29;;;;;;;18.60;9.73;;;;;-0.30;94623.00;;;;8232956;28;20241;-74
2022/12/14 09:58:33;;;;;;;19.07;9.47;;;;;-0.40;94633.00;;;;8233318;28;20217;-74
2022/12/14 10:02:43;;;;;;;20.60;9.87;;;;;-0.30;94619.00;;;;8222150;28;20279;-75
2022/12/14 10:06:55;;;;;;;20.73;8.90;;;;;-0.10;94621.00;;;;8224310;28;20232;-76
2022/12/14 10:11:06;;;;;;;18.57;9.60;;;;;0.00;94622.00;;;;8216025;28;20211;-74
2022/12/14 10:15:20;;;;;;;23.37;9.43;;;;;0.30;94617.00;;;;8214639;28;20202;-74
2022/12/14 10:19:35;;;;;;;21.10;9.87;;;;;0.20;94607.00;;;;8184062;28;20209;-74
2022/12/14 10:23:41;;;;;;;19.93;9.73;;;;;0.10;94612.00;;;;8197498;28;20645;-76
2022/12/14 10:27:52;;;;;;;18.77;9.77;;;;;-0.10;94594.00;;;;8188280;28;20670;-77
2022/12/14 10:32:20;;;;;;;20.13;10.47;;;;;0.00;94604.00;;;;8190790;28;20204;-77
2022/12/14 10:36:28;;;;;;;22.10;9.97;;;;;0.10;94598.00;;;;8183112;28;20494;-77
2022/12/14 10:40:33;;;;;;;19.73;9.27;;;;;0.00;94592.00;;;;8190970;28;20818;-73
2022/12/14 10:44:48;;;;;;;21.60;10.07;;;;;-0.10;94588.00;;;;8180300;28;20196;-73
2022/12/14 10:49:15;;;;;;;17.60;9.87;;;;;-0.20;94560.00;;;;8190028;28;20226;-74
2022/12/14 10:53:26;;;;;;;22.17;10.23;;;;;-0.30;94549.00;;;;8190864;28;20196;-73
2022/12/14 10:57:29;;;;;;;24.47;10.30;;;;;-0.50;94542.00;;;;8187569;28;20220;-72
2022/12/14 11:01:34;;;;;;;25.13;10.70;;;;;-0.40;94543.00;;;;8186231;28;20659;-79
2022/12/14 11:05:41;;;;;;;20.83;10.60;;;;;-0.40;94549.00;;;;8197581;28;20973;-74
2022/12/14 11:09:44;;;;;;;23.63;10.43;;;;;-0.40;94541.00;;;;8180696;28;20216;-73
2022/12/14 11:13:49;;;;;;;24.03;12.70;;;;;-0.40;94562.00;;;;8181115;28;20678;-71
2022/12/14 11:18:03;;;;;;;33.63;14.17;;;;;-0.40;94545.00;;;;8191303;28;20598;-72
2022/12/14 11:22:12;;;;;;;19.13;10.53;;;;;-0.40;94544.00;;;;8190033;28;20215;-73
2022/12/14 11:26:28;;;;;;;28.97;12.53;;;;;-0.60;94517.00;;;;8181198;28;20323;-71
2022/12/14 11:30:31;;;;;;;27.20;11.53;;;;;-0.70;94515.00;;;;8181486;29;20205;-73
2022/12/14 11:34:41;;;;;;;25.40;12.40;;;;;-0.70;94495.00;;;;8170213;28;20313;-73
2022/12/14 11:38:54;;;;;;;26.50;12.10;;;;;-0.70;94506.00;;;;8185747;28;20558;-72
2022/12/14 11:43:04;;;;;;;26.20;12.47;;;;;-0.60;94506.00;;;;8189908;28;20205;-72
2022/12/14 11:47:12;;;;;;;26.53;11.53;;;;;-0.30;94519.00;;;;8196657;28;20240;-73
2022/12/14 11:51:17;;;;;;;27.27;13.73;;;;;-0.20;94529.00;;;;8188128;28;20828;-71
2022/12/14 11:55:23;;;;;;;25.07;12.10;;;;;-0.20;94531.00;;;;8183352;28;20212;-72
2022/12/14 11:59:36;;;;;;;24.87;11.73;;;;;-0.40;94530.00;;;;8180314;28;20212;-73
2022/12/14 12:03:44;;;;;;;29.43;12.27;;;;;-0.40;94521.00;;;;8186102;28;20234;-73
2022/12/14 12:07:55;;;;;;;25.73;12.27;;;;;-0.50;94520.00;;;;8185793;29;20312;-73
2022/12/14 12:11:59;;;;;;;30.77;13.23;;;;;-0.50;94501.00;;;;8182757;28;20286;-75
2022/12/14 12:16:06;;;;;;;30.30;12.70;;;;;-0.40;94496.00;;;;8185135;28;20200;-73
2022/12/14 12:20:19;;;;;;;28.30;13.03;;;;;-0.30;94496.00;;;;8188192;28;20665;-74
2022/12/14 12:24:29;;;;;;;27.87;12.97;;;;;-0.30;94482.00;;;;8183216;28;20256;-77
2022/12/14 12:28:37;;;;;;;29.07;13.90;;;;;-0.30;94475.00;;;;8181633;28;20324;-72
2022/12/14 12:32:46;;;;;;;28.47;13.43;;;;;-0.20;94476.00;;;;8178800;28;20205;-71
2022/12/14 12:36:54;;;;;;;29.83;14.00;;;;;-0.20;94472.00;;;;8186866;28;20988;-73
2022/12/14 12:41:25;;;;;;;27.63;12.63;;;;;-0.20;94460.00;;;;8189477;28;20239;-71
2022/12/14 12:45:34;;;;;;;30.33;13.47;;;;;-0.20;94456.00;;;;8181273;28;20198;-76
2022/12/14 12:49:37;;;;;;;26.63;12.17;;;;;0.00;94456.00;;;;8192909;28;20223;-75
2022/12/14 12:53:45;;;;;;;24.03;11.30;;;;;0.10;94460.00;;;;8181255;29;20218;-75
2022/12/14 12:57:53;;;;;;;110.70;34.77;;;;;0.10;94468.00;;;;8185459;29;20201;-76
2022/12/14 13:02:01;;;;;;;86.40;31.60;;;;;0.20;94463.00;;;;8190385;28;21111;-76
2022/12/14 13:06:13;;;;;;;34.95;17.95;;;;;0.10;94471.00;;;;8191005;28;20467;-75
2022/12/14 13:10:22;;;;;;;96.97;47.07;;;;;0.40;94454.00;;;;8194784;28;20232;-76
2022/12/14 13:14:35;;;;;;;29.23;15.50;;;;;0.40;94450.00;;;;8183783;28;20205;-75
2022/12/14 13:18:42;;;;;;;280.17;135.40;;;;;0.40;94448.00;;;;8193115;28;20646;-77
2022/12/14 13:23:05;;;;;;;33.20;16.20;;;;;0.30;94440.00;;;;8185690;28;20578;-72
2022/12/14 13:27:48;;;;;;;56.63;26.30;;;;;0.40;94434.00;;;;8179878;29;20277;-77
2022/12/14 13:32:02;;;;;;;25.43;12.63;;;;;0.40;94440.00;;;;8197829;28;20214;-74
2022/12/14 13:36:27;;;;;;;28.47;13.13;;;;;0.30;94435.00;;;;8182453;28;20206;-74
2022/12/14 13:40:56;;;;;;;27.63;13.23;;;;;0.30;94434.00;;;;8193654;29;20201;-73
2022/12/14 13:45:01;;;;;;;27.83;13.47;;;;;0.30;94434.00;;;;8182228;28;20203;-73
2022/12/14 13:49:08;;;;;;;31.67;13.67;;;;;0.20;94429.00;;;;8201479;28;20227;-75
2022/12/14 13:53:16;;;;;;;23.50;11.07;;;;;0.30;94432.00;;;;8184538;28;20200;-73
2022/12/14 13:57:23;;;;;;;30.67;12.93;;;;;0.20;94439.00;;;;8179796;28;20204;-78
2022/12/14 14:01:57;;;;;;;31.03;14.43;;;;;0.10;94465.00;;;;8183508;28;20205;-74
2022/12/14 14:06:07;;;;;;;30.13;13.13;;;;;0.10;94465.00;;;;8169466;28;20201;-73
2022/12/14 14:10:29;;;;;;;25.93;13.17;;;;;0.10;94459.00;;;;8184974;29;20230;-71
2022/12/14 14:14:49;;;;;;;28.60;12.53;;;;;0.00;94470.00;;;;8180101;28;20203;-71
2022/12/14 14:18:56;;;;;;;26.10;13.33;;;;;0.00;94457.00;;;;8188279;28;20255;-71
2022/12/14 14:23:28;;;;;;;25.87;12.50;;;;;-0.10;94466.00;;;;8194994;28;20189;-71
2022/12/14 14:27:37;;;;;;;26.37;13.40;;;;;-0.10;94480.00;;;;8188830;28;20259;-73
2022/12/14 14:31:50;;;;;;;27.40;13.23;;;;;-0.10;94471.00;;;;8190723;28;20648;-72
2022/12/14 14:36:07;;;;;;;26.73;12.83;;;;;-0.10;94475.00;;;;8189793;28;20234;-74
2022/12/14 14:40:36;;;;;;;33.73;14.20;;;;;-0.10;94477.00;;;;8189099;28;20703;-71
2022/12/14 14:45:02;;;;;;;28.40;13.63;;;;;-0.10;94478.00;;;;8179270;28;20211;-73
2022/12/14 14:49:06;;;;;;;29.27;13.37;;;;;0.00;94489.00;;;;8191754;28;20253;-72
2022/12/14 14:53:28;;;;;;;28.07;14.93;;;;;0.00;94486.00;;;;8185992;28;20204;-71
2022/12/14 14:57:55;;;;;;;31.23;14.27;;;;;0.00;94491.00;;;;8183345;28;20247;-74
2022/12/14 15:02:01;;;;;;;34.00;15.13;;;;;0.00;94484.00;;;;8174521;28;20225;-73
2022/12/14 15:06:12;;;;;;;29.07;13.80;;;;;0.00;94487.00;;;;8190554;28;20206;-73
2022/12/14 15:10:24;;;;;;;29.87;14.87;;;;;0.00;94498.00;;;;8196455;28;20942;-72
2022/12/14 15:14:38;;;;;;;27.30;13.40;;;;;0.10;94485.00;;;;8183492;28;20202;-74
2022/12/14 15:18:48;;;;;;;34.90;15.03;;;;;0.10;94469.00;;;;8179358;28;20200;-69
2022/12/14 15:22:54;;;;;;;29.93;14.63;;;;;0.10;94457.00;;;;8183205;28;20283;-70
2022/12/14 15:26:57;;;;;;;35.93;15.70;;;;;0.00;94443.00;;;;8189264;28;20192;-69
2022/12/14 15:31:02;;;;;;;40.70;19.23;;;;;0.00;94450.00;;;;8188361;28;20242;-71
2022/12/14 15:35:08;;;;;;;34.60;15.27;;;;;-0.10;94458.00;;;;8184487;28;20233;-71
2022/12/14 15:39:36;;;;;;;37.70;16.00;;;;;-0.20;94461.00;;;;8169785;29;20197;-70
2022/12/14 15:43:43;;;;;;;35.63;15.33;;;;;-0.30;94481.00;;;;8180256;28;21162;-70
2022/12/14 15:47:49;;;;;;;36.23;15.83;;;;;-0.40;94480.00;;;;8185773;29;20295;-67
2022/12/14 15:51:53;;;;;;;39.53;15.17;;;;;-0.40;94497.00;;;;8180409;28;20260;-69
2022/12/14 15:55:58;;;;;;;28.70;13.87;;;;;-0.30;94499.00;;;;8178236;28;20221;-69
2022/12/14 16:00:12;;;;;;;35.97;16.00;;;;;-0.30;94506.00;;;;8163241;28;20706;-70
2022/12/14 16:04:19;;;;;;;37.70;16.13;;;;;-0.40;94502.00;;;;8178673;28;20411;-70
2022/12/14 16:08:23;;;;;;;35.23;15.17;;;;;-0.40;94504.00;;;;8182976;29;20636;-70
2022/12/14 16:12:31;;;;;;;42.83;18.67;;;;;-0.40;94521.00;;;;8179667;29;20214;-70
2022/12/14 16:16:34;;;;;;;35.00;15.33;;;;;-0.50;94514.00;;;;8176594;28;20615;-68
2022/12/14 16:20:43;;;;;;;32.97;14.63;;;;;-0.40;94528.00;;;;8176103;28;20223;-68
2022/12/14 16:25:16;;;;;;;33.37;16.47;;;;;-0.50;94524.00;;;;8180551;28;20352;-69
2022/12/14 16:29:24;;;;;;;34.60;16.73;;;;;-0.40;94530.00;;;;8179843;28;20240;-70
2022/12/14 16:33:28;;;;;;;37.63;16.00;;;;;-0.30;94534.00;;;;8179778;28;20215;-70
2022/12/14 16:37:34;;;;;;;44.43;19.17;;;;;-0.30;94543.00;;;;8185532;28;20291;-71
2022/12/14 16:41:40;;;;;;;38.73;16.00;;;;;-0.20;94553.00;;;;8179868;28;20702;-67
2022/12/14 16:46:09;;;;;;;34.07;15.90;;;;;-0.10;94560.00;;;;8184534;28;20260;-67
2022/12/14 16:50:21;;;;;;;37.33;15.70;;;;;-0.10;94570.00;;;;8179968;29;20254;-69
2022/12/14 16:55:07;;;;;;;38.63;16.00;;;;;-0.10;94574.00;;;;8190525;28;20206;-71
2022/12/14 16:59:22;;;;;;;36.43;16.47;;;;;0.00;94576.00;;;;8181778;28;20197;-72
2022/12/14 17:03:26;;;;;;;36.83;15.30;;;;;0.00;94570.00;;;;8180395;28;20237;-71
2022/12/14 17:07:31;;;;;;;37.20;15.40;;;;;0.10;94566.00;;;;8181225;28;20212;-70
2022/12/14 17:11:39;;;;;;;37.43;16.80;;;;;0.10;94571.00;;;;8183411;28;20727;-74
2022/12/14 17:15:56;;;;;;;34.87;15.27;;;;;0.10;94587.00;;;;8188302;28;20208;-73
2022/12/14 17:19:59;;;;;;;34.73;16.03;;;;;0.10;94586.00;;;;8176805;28;20823;-74
2022/12/14 17:24:03;;;;;;;36.83;17.03;;;;;0.10;94602.00;;;;8181722;28;20215;-74
2022/12/14 17:28:20;;;;;;;34.33;16.90;;;;;0.00;94613.00;;;;8172882;28;20190;-72
2022/12/14 17:32:26;;;;;;;38.40;17.10;;;;;0.00;94614.00;;;;8178690;28;20204;-72
2022/12/14 17:36:29;;;;;;;41.23;18.87;;;;;0.00;94615.00;;;;8182823;28;20399;-70
2022/12/14 17:40:33;;;;;;;40.10;17.70;;;;;0.00;94617.00;;;;8188417;29;20194;-70
2022/12/14 17:44:39;;;;;;;39.03;17.63;;;;;0.10;94629.00;;;;8185302;28;21128;-72
2022/12/14 17:48:42;;;;;;;37.33;18.30;;;;;0.10;94622.00;;;;8189794;28;20238;-70
2022/12/14 17:52:46;;;;;;;41.13;18.90;;;;;0.10;94622.00;;;;8185661;28;20221;-69
2022/12/14 17:56:50;;;;;;;49.67;22.60;;;;;0.20;94615.00;;;;8185063;28;20202;-73
2022/12/14 18:01:01;;;;;;;56.30;19.87;;;;;0.20;94627.00;;;;8186229;28;20203;-73
2022/12/14 18:05:05;;;;;;;34.03;15.20;;;;;0.20;94622.00;;;;8179176;28;20228;-75
2022/12/14 18:09:08;;;;;;;31.30;14.80;;;;;0.10;94621.00;;;;8180821;29;20233;-72
2022/12/14 18:13:12;;;;;;;28.57;13.90;;;;;0.10;94619.00;;;;8187669;29;20343;-73
2022/12/14 18:17:16;;;;;;;32.13;15.37;;;;;0.10;94619.00;;;;8188584;28;20816;-71
2022/12/14 18:21:23;;;;;;;32.93;16.03;;;;;0.10;94624.00;;;;8180651;28;20228;-69
2022/12/14 18:25:30;;;;;;;33.30;15.17;;;;;0.10;94624.00;;;;8187201;28;20197;-70
2022/12/14 18:29:33;;;;;;;41.37;18.17;;;;;0.10;94628.00;;;;8188318;29;20323;-71
2022/12/14 18:33:38;;;;;;;39.83;17.30;;;;;0.10;94625.00;;;;8186492;28;20656;-68
2022/12/14 18:37:41;;;;;;;35.03;16.50;;;;;0.10;94631.00;;;;8187661;28;20206;-72
2022/12/14 18:41:51;;;;;;;38.97;17.73;;;;;0.10;94639.00;;;;8186977;28;20201;-69
2022/12/14 18:45:55;;;;;;;41.73;16.47;;;;;0.10;94655.00;;;;8178496;28;20311;-70
2022/12/14 18:50:00;;;;;;;36.93;15.67;;;;;0.10;94663.00;;;;8188632;28;20271;-73
2022/12/14 18:54:03;;;;;;;38.93;17.37;;;;;0.10;94664.00;;;;8186877;28;20201;-70
2022/12/14 18:58:06;;;;;;;37.53;16.17;;;;;0.10;94661.00;;;;8186905;28;20646;-69
2022/12/14 19:02:14;;;;;;;35.27;16.43;;;;;0.10;94666.00;;;;8185511;28;20252;-70
2022/12/14 19:06:21;;;;;;;35.10;16.30;;;;;0.10;94677.00;;;;8191993;28;20658;-70
2022/12/14 19:10:47;;;;;;;38.50;16.30;;;;;0.10;94673.00;;;;8186825;28;20232;-72
2022/12/14 19:14:50;;;;;;;36.00;16.73;;;;;0.10;94693.00;;;;8182959;28;20212;-70
2022/12/14 19:18:53;;;;;;;39.03;18.47;;;;;0.10;94702.00;;;;8183186;28;20192;-69
2022/12/14 19:22:58;;;;;;;37.63;17.00;;;;;0.10;94701.00;;;;8179263;28;20268;-71
2022/12/14 19:27:02;;;;;;;40.13;18.47;;;;;0.10;94703.00;;;;8189136;28;20871;-72
2022/12/14 19:31:09;;;;;;;39.03;17.60;;;;;0.10;94709.00;;;;8189476;28;20224;-70
2022/12/14 19:35:12;;;;;;;40.73;17.57;;;;;0.10;94718.00;;;;8188881;28;20200;-69
2022/12/14 19:39:17;;;;;;;43.10;18.13;;;;;0.20;94718.00;;;;8185849;28;20209;-71
2022/12/14 19:43:20;;;;;;;39.07;18.00;;;;;0.20;94726.00;;;;8191696;28;20204;-70
2022/12/14 19:47:23;;;;;;;44.40;18.07;;;;;0.10;94725.00;;;;8183122;28;20245;-73
2022/12/14 19:51:26;;;;;;;36.17;16.97;;;;;0.20;94727.00;;;;8185440;28;20247;-71
2022/12/14 19:55:33;;;;;;;41.63;16.27;;;;;0.10;94744.00;;;;8183989;28;20354;-72
2022/12/14 19:59:36;;;;;;;43.37;19.87;;;;;0.10;94743.00;;;;8182533;28;20204;-70
2022/12/14 20:03:40;;;;;;;39.80;18.40;;;;;0.10;94753.00;;;;8185240;28;20232;-67
2022/12/14 20:07:43;;;;;;;41.43;18.23;;;;;0.10;94755.00;;;;8187118;28;20201;-70
2022/12/14 20:11:48;;;;;;;45.73;19.93;;;;;0.20;94746.00;;;;8174512;28;20284;-69
2022/12/14 20:15:53;;;;;;;44.17;19.30;;;;;0.20;94749.00;;;;8189821;28;20214;-69
2022/12/14 20:19:56;;;;;;;46.30;20.30;;;;;0.20;94752.00;;;;8178171;28;20939;-70
2022/12/14 20:24:00;;;;;;;48.00;21.50;;;;;0.20;94755.00;;;;8201110;28;20226;-70
2022/12/14 20:28:04;;;;;;;39.60;18.77;;;;;0.20;94755.00;;;;8244132;28;20206;-71